Pajarito, New Mexico
Current Conditions -  °F | °C
As of 4:55 PM on Saturday 25 Oct 2014 (Local Time) from KLAM Reporting Station
Clear Clear  
Wind Chill: 72°   Ceiling: Unl
Heat Index: 72°   Visibility: 10mi
Dew Point: 22°   Wind: 7mph
Humidity: 15%   Direction: 130°SE
Pressure: 30.29"   Gusts: NA
Location:  35.9775°N, 106.158°W
Report Text: KLAM 252255Z AUTO 13006KT 10SM CLR 22/M06 A3029 RMK AO2 T02211058
Loading
Personal Weather Stations






























Interactive Weather Map
Tropical Storm Tracking
New forecast layout! Learn more

10-Day Weather Forecast

Advertisements
Track Severe Weather on mobile